sensor_id;sensor_type;location;lat;lon;timestamp;pressure;altitude;pressure_sealevel;temperature;humidity
83444;BME280;73374;41.170;-96.156;2024-02-21T00:04:56;97104.56;;;17.08;29.10
83444;BME280;73374;41.170;-96.156;2024-02-21T00:10:00;97117.31;;;16.98;29.26
83444;BME280;73374;41.170;-96.156;2024-02-21T00:15:05;97114.13;;;16.82;29.41
83444;BME280;73374;41.170;-96.156;2024-02-21T00:20:09;97117.78;;;16.48;30.49
83444;BME280;73374;41.170;-96.156;2024-02-21T00:25:12;97119.84;;;16.26;30.54
83444;BME280;73374;41.170;-96.156;2024-02-21T00:30:17;97117.00;;;15.88;31.15
83444;BME280;73374;41.170;-96.156;2024-02-21T00:35:20;97124.16;;;15.47;31.78
83444;BME280;73374;41.170;-96.156;2024-02-21T00:40:23;97117.63;;;15.23;31.98
83444;BME280;73374;41.170;-96.156;2024-02-21T00:45:32;97111.44;;;14.89;32.94
83444;BME280;73374;41.170;-96.156;2024-02-21T00:50:36;97109.72;;;14.62;33.34
83444;BME280;73374;41.170;-96.156;2024-02-21T00:55:39;97109.41;;;14.43;33.46
83444;BME280;73374;41.170;-96.156;2024-02-21T01:00:43;97109.34;;;14.15;34.12
83444;BME280;73374;41.170;-96.156;2024-02-21T01:05:47;97114.09;;;14.05;34.50
83444;BME280;73374;41.170;-96.156;2024-02-21T01:10:50;97103.59;;;13.99;34.50
83444;BME280;73374;41.170;-96.156;2024-02-21T01:15:54;97080.19;;;13.63;34.88
83444;BME280;73374;41.170;-96.156;2024-02-21T01:20:57;97103.97;;;13.53;35.19
83444;BME280;73374;41.170;-96.156;2024-02-21T01:26:00;97086.81;;;13.22;35.95
83444;BME280;73374;41.170;-96.156;2024-02-21T01:31:05;97068.44;;;13.01;36.18
83444;BME280;73374;41.170;-96.156;2024-02-21T01:36:08;97087.28;;;12.82;36.32
83444;BME280;73374;41.170;-96.156;2024-02-21T01:41:11;97090.38;;;12.71;35.94
83444;BME280;73374;41.170;-96.156;2024-02-21T01:46:16;97088.28;;;12.66;36.48
83444;BME280;73374;41.170;-96.156;2024-02-21T01:51:20;97078.69;;;12.52;36.67
83444;BME280;73374;41.170;-96.156;2024-02-21T01:56:23;97078.22;;;12.63;36.67
83444;BME280;73374;41.170;-96.156;2024-02-21T02:01:29;97071.22;;;12.63;36.91
83444;BME280;73374;41.170;-96.156;2024-02-21T02:06:32;97065.66;;;12.37;37.08
83444;BME280;73374;41.170;-96.156;2024-02-21T02:11:36;97060.16;;;12.17;37.99
83444;BME280;73374;41.170;-96.156;2024-02-21T02:16:40;97056.19;;;12.06;37.16
83444;BME280;73374;41.170;-96.156;2024-02-21T02:21:46;97061.28;;;11.77;38.48
83444;BME280;73374;41.170;-96.156;2024-02-21T02:26:54;97056.28;;;11.53;39.01
83444;BME280;73374;41.170;-96.156;2024-02-21T02:31:57;97054.09;;;11.64;39.09
83444;BME280;73374;41.170;-96.156;2024-02-21T02:37:00;97058.94;;;11.67;38.64
83444;BME280;73374;41.170;-96.156;2024-02-21T02:42:05;97060.66;;;11.75;39.08
83444;BME280;73374;41.170;-96.156;2024-02-21T02:47:09;97077.88;;;11.84;38.94
83444;BME280;73374;41.170;-96.156;2024-02-21T02:52:12;97064.50;;;11.87;38.68
83444;BME280;73374;41.170;-96.156;2024-02-21T02:57:16;97077.00;;;11.92;39.23
83444;BME280;73374;41.170;-96.156;2024-02-21T03:02:19;97063.78;;;11.93;38.64
83444;BME280;73374;41.170;-96.156;2024-02-21T03:07:23;97068.59;;;12.04;38.57
83444;BME280;73374;41.170;-96.156;2024-02-21T03:12:28;97068.03;;;12.09;39.46
83444;BME280;73374;41.170;-96.156;2024-02-21T03:17:31;97060.91;;;11.88;39.59
83444;BME280;73374;41.170;-96.156;2024-02-21T03:22:35;97062.00;;;11.94;39.81
83444;BME280;73374;41.170;-96.156;2024-02-21T03:27:40;97064.50;;;11.87;39.72
83444;BME280;73374;41.170;-96.156;2024-02-21T03:32:42;97063.91;;;12.15;39.73
83444;BME280;73374;41.170;-96.156;2024-02-21T03:37:46;97067.44;;;12.22;39.19
83444;BME280;73374;41.170;-96.156;2024-02-21T03:42:50;97067.00;;;12.33;38.82
83444;BME280;73374;41.170;-96.156;2024-02-21T03:47:53;97074.34;;;12.88;38.62
83444;BME280;73374;41.170;-96.156;2024-02-21T03:52:56;97067.50;;;13.60;36.93
83444;BME280;73374;41.170;-96.156;2024-02-21T03:58:01;97075.47;;;14.01;36.66
83444;BME280;73374;41.170;-96.156;2024-02-21T04:03:04;97059.94;;;14.21;35.97
83444;BME280;73374;41.170;-96.156;2024-02-21T04:08:08;97067.16;;;14.18;36.08
83444;BME280;73374;41.170;-96.156;2024-02-21T04:13:12;97081.84;;;13.92;36.96
83444;BME280;73374;41.170;-96.156;2024-02-21T04:18:15;97119.91;;;12.92;38.73
83444;BME280;73374;41.170;-96.156;2024-02-21T04:23:18;97117.34;;;12.11;40.78
83444;BME280;73374;41.170;-96.156;2024-02-21T04:28:23;97125.47;;;11.47;42.06
83444;BME280;73374;41.170;-96.156;2024-02-21T04:33:26;97119.19;;;11.33;41.43
83444;BME280;73374;41.170;-96.156;2024-02-21T04:38:30;97135.63;;;10.95;42.49
83444;BME280;73374;41.170;-96.156;2024-02-21T04:43:34;97141.09;;;10.52;44.61
83444;BME280;73374;41.170;-96.156;2024-02-21T04:48:37;97132.84;;;10.16;45.61
83444;BME280;73374;41.170;-96.156;2024-02-21T04:53:40;97127.53;;;10.26;44.90
83444;BME280;73374;41.170;-96.156;2024-02-21T04:58:45;97143.16;;;10.73;44.50
83444;BME280;73374;41.170;-96.156;2024-02-21T05:03:48;97149.41;;;9.83;45.88
83444;BME280;73374;41.170;-96.156;2024-02-21T05:08:51;97163.81;;;9.61;46.60
83444;BME280;73374;41.170;-96.156;2024-02-21T05:13:56;97165.69;;;9.34;47.83
83444;BME280;73374;41.170;-96.156;2024-02-21T05:18:59;97162.50;;;9.49;47.13
83444;BME280;73374;41.170;-96.156;2024-02-21T05:24:02;97169.84;;;9.86;47.13
83444;BME280;73374;41.170;-96.156;2024-02-21T05:29:07;97168.53;;;9.82;47.06
83444;BME280;73374;41.170;-96.156;2024-02-21T05:34:11;97172.88;;;9.49;48.45
83444;BME280;73374;41.170;-96.156;2024-02-21T05:39:15;97189.66;;;8.86;49.61
83444;BME280;73374;41.170;-96.156;2024-02-21T05:44:20;97187.94;;;8.69;49.95
83444;BME280;73374;41.170;-96.156;2024-02-21T05:49:23;97180.75;;;8.63;49.69
83444;BME280;73374;41.170;-96.156;2024-02-21T05:54:26;97187.59;;;8.38;50.99
83444;BME280;73374;41.170;-96.156;2024-02-21T05:59:31;97181.81;;;8.08;51.89
83444;BME280;73374;41.170;-96.156;2024-02-21T06:04:35;97175.63;;;7.83;52.48
83444;BME280;73374;41.170;-96.156;2024-02-21T06:09:38;97187.75;;;8.01;52.77
83444;BME280;73374;41.170;-96.156;2024-02-21T06:14:42;97194.41;;;7.68;52.49
83444;BME280;73374;41.170;-96.156;2024-02-21T06:19:45;97221.78;;;7.15;54.70
83444;BME280;73374;41.170;-96.156;2024-02-21T06:24:48;97201.88;;;6.88;54.87
83444;BME280;73374;41.170;-96.156;2024-02-21T06:29:53;97207.63;;;6.73;55.93
83444;BME280;73374;41.170;-96.156;2024-02-21T06:34:56;97209.56;;;6.71;56.05
83444;BME280;73374;41.170;-96.156;2024-02-21T06:39:59;97214.53;;;6.45;56.15
83444;BME280;73374;41.170;-96.156;2024-02-21T06:45:05;97217.19;;;6.62;57.50
83444;BME280;73374;41.170;-96.156;2024-02-21T06:50:09;97221.94;;;6.57;57.90
83444;BME280;73374;41.170;-96.156;2024-02-21T06:55:12;97207.03;;;6.42;58.30
83444;BME280;73374;41.170;-96.156;2024-02-21T07:00:18;97223.59;;;6.39;58.88
83444;BME280;73374;41.170;-96.156;2024-02-21T07:05:23;97234.34;;;6.34;59.09
83444;BME280;73374;41.170;-96.156;2024-02-21T07:10:26;97232.06;;;6.12;59.24
83444;BME280;73374;41.170;-96.156;2024-02-21T07:15:32;97231.53;;;6.09;59.68
83444;BME280;73374;41.170;-96.156;2024-02-21T07:20:35;97208.69;;;6.04;60.27
83444;BME280;73374;41.170;-96.156;2024-02-21T07:25:38;97241.69;;;6.00;61.16
83444;BME280;73374;41.170;-96.156;2024-02-21T07:30:43;97238.78;;;5.84;62.85
83444;BME280;73374;41.170;-96.156;2024-02-21T07:35:46;97238.78;;;5.84;62.33
83444;BME280;73374;41.170;-96.156;2024-02-21T07:40:49;97255.47;;;5.61;64.10
83444;BME280;73374;41.170;-96.156;2024-02-21T07:45:54;97264.09;;;5.50;64.51
83444;BME280;73374;41.170;-96.156;2024-02-21T07:50:57;97268.25;;;5.32;65.26
83444;BME280;73374;41.170;-96.156;2024-02-21T07:56:00;97263.22;;;5.00;65.25
83444;BME280;73374;41.170;-96.156;2024-02-21T08:01:05;97251.34;;;4.78;65.25
83444;BME280;73374;41.170;-96.156;2024-02-21T08:06:12;97246.25;;;4.67;66.24
83444;BME280;73374;41.170;-96.156;2024-02-21T08:11:16;97233.94;;;4.40;65.75
83444;BME280;73374;41.170;-96.156;2024-02-21T08:16:21;97247.22;;;4.24;67.22
83444;BME280;73374;41.170;-96.156;2024-02-21T08:21:24;97232.22;;;4.29;67.78
83444;BME280;73374;41.170;-96.156;2024-02-21T08:26:27;97244.25;;;4.29;68.13
83444;BME280;73374;41.170;-96.156;2024-02-21T08:31:32;97234.66;;;4.31;68.22
83444;BME280;73374;41.170;-96.156;2024-02-21T08:36:35;97238.25;;;4.18;67.41
83444;BME280;73374;41.170;-96.156;2024-02-21T08:41:39;97234.81;;;3.97;68.07
83444;BME280;73374;41.170;-96.156;2024-02-21T08:46:59;97243.78;;;3.82;68.89
83444;BME280;73374;41.170;-96.156;2024-02-21T08:52:03;97242.16;;;3.70;69.15
83444;BME280;73374;41.170;-96.156;2024-02-21T08:57:06;97236.91;;;3.71;69.72
83444;BME280;73374;41.170;-96.156;2024-02-21T09:02:11;97227.88;;;3.77;69.67
83444;BME280;73374;41.170;-96.156;2024-02-21T09:07:14;97226.41;;;3.95;69.86
83444;BME280;73374;41.170;-96.156;2024-02-21T09:12:17;97237.19;;;4.21;70.12
83444;BME280;73374;41.170;-96.156;2024-02-21T09:17:22;97227.88;;;4.09;70.73
83444;BME280;73374;41.170;-96.156;2024-02-21T09:22:25;97231.91;;;4.02;70.06
83444;BME280;73374;41.170;-96.156;2024-02-21T09:27:28;97227.34;;;3.94;70.45
83444;BME280;73374;41.170;-96.156;2024-02-21T09:32:32;97205.03;;;3.94;70.85
83444;BME280;73374;41.170;-96.156;2024-02-21T09:37:35;97235.03;;;3.73;71.05
83444;BME280;73374;41.170;-96.156;2024-02-21T09:42:39;97212.88;;;3.61;71.35
83444;BME280;73374;41.170;-96.156;2024-02-21T09:48:00;97213.88;;;3.26;71.88
83444;BME280;73374;41.170;-96.156;2024-02-21T09:53:12;97229.66;;;2.99;72.49
83444;BME280;73374;41.170;-96.156;2024-02-21T09:58:15;97231.28;;;2.89;72.98
83444;BME280;73374;41.170;-96.156;2024-02-21T10:03:20;97218.59;;;2.88;73.22
83444;BME280;73374;41.170;-96.156;2024-02-21T10:08:23;97204.56;;;2.92;74.31
83444;BME280;73374;41.170;-96.156;2024-02-21T10:13:27;97192.94;;;2.99;73.67
83444;BME280;73374;41.170;-96.156;2024-02-21T10:18:32;97192.56;;;3.03;73.78
83444;BME280;73374;41.170;-96.156;2024-02-21T10:23:45;97185.56;;;3.06;74.23
83444;BME280;73374;41.170;-96.156;2024-02-21T10:28:48;97188.81;;;3.08;74.21
83444;BME280;73374;41.170;-96.156;2024-02-21T10:33:57;97190.47;;;2.75;74.58
83444;BME280;73374;41.170;-96.156;2024-02-21T10:39:00;97192.09;;;2.76;74.95
83444;BME280;73374;41.170;-96.156;2024-02-21T10:44:03;97191.63;;;2.60;75.61
83444;BME280;73374;41.170;-96.156;2024-02-21T10:49:13;97186.47;;;2.37;75.91
83444;BME280;73374;41.170;-96.156;2024-02-21T10:54:32;97199.03;;;2.18;75.69
83444;BME280;73374;41.170;-96.156;2024-02-21T10:59:40;97196.25;;;2.21;76.55
83444;BME280;73374;41.170;-96.156;2024-02-21T11:04:45;97190.88;;;2.13;76.90
83444;BME280;73374;41.170;-96.156;2024-02-21T11:09:52;97195.06;;;2.25;76.74
83444;BME280;73374;41.170;-96.156;2024-02-21T11:15:04;97185.06;;;2.22;76.55
83444;BME280;73374;41.170;-96.156;2024-02-21T11:20:15;97183.66;;;2.18;76.98
83444;BME280;73374;41.170;-96.156;2024-02-21T11:25:22;97183.19;;;2.13;76.92
83444;BME280;73374;41.170;-96.156;2024-02-21T11:30:27;97187.94;;;1.71;76.83
83444;BME280;73374;41.170;-96.156;2024-02-21T11:35:35;97200.47;;;1.39;77.09
83444;BME280;73374;41.170;-96.156;2024-02-21T11:40:39;97209.69;;;1.42;77.43
83444;BME280;73374;41.170;-96.156;2024-02-21T11:45:43;97209.00;;;1.51;78.37
83444;BME280;73374;41.170;-96.156;2024-02-21T11:50:54;97194.63;;;1.37;77.91
83444;BME280;73374;41.170;-96.156;2024-02-21T11:55:57;97207.88;;;1.55;78.59
83444;BME280;73374;41.170;-96.156;2024-02-21T12:00:59;97197.69;;;1.66;78.64
83444;BME280;73374;41.170;-96.156;2024-02-21T12:06:06;97196.75;;;1.67;78.36
83444;BME280;73374;41.170;-96.156;2024-02-21T12:11:18;97184.44;;;1.72;78.49
83444;BME280;73374;41.170;-96.156;2024-02-21T12:16:21;97174.31;;;1.71;78.27
83444;BME280;73374;41.170;-96.156;2024-02-21T12:21:26;97184.75;;;1.92;78.46
83444;BME280;73374;41.170;-96.156;2024-02-21T12:26:29;97172.91;;;2.02;78.16
83444;BME280;73374;41.170;-96.156;2024-02-21T12:31:32;97174.91;;;2.09;77.87
83444;BME280;73374;41.170;-96.156;2024-02-21T12:36:41;97171.28;;;2.01;77.71
83444;BME280;73374;41.170;-96.156;2024-02-21T12:41:43;97175.22;;;2.05;77.68
83444;BME280;73374;41.170;-96.156;2024-02-21T12:46:47;97162.31;;;2.06;77.96
83444;BME280;73374;41.170;-96.156;2024-02-21T12:51:51;97126.75;;;1.91;77.76
83444;BME280;73374;41.170;-96.156;2024-02-21T12:56:54;97139.66;;;1.78;77.53
83444;BME280;73374;41.170;-96.156;2024-02-21T13:01:57;97144.78;;;1.78;76.76
83444;BME280;73374;41.170;-96.156;2024-02-21T13:07:02;97141.09;;;1.93;77.06
83444;BME280;73374;41.170;-96.156;2024-02-21T13:12:05;97142.13;;;1.91;76.57
83444;BME280;73374;41.170;-96.156;2024-02-21T13:17:08;97147.59;;;1.86;76.42
83444;BME280;73374;41.170;-96.156;2024-02-21T13:22:13;97140.84;;;1.85;76.60
83444;BME280;73374;41.170;-96.156;2024-02-21T13:27:16;97140.41;;;1.91;76.67
83444;BME280;73374;41.170;-96.156;2024-02-21T13:32:19;97151.47;;;2.03;77.23
83444;BME280;73374;41.170;-96.156;2024-02-21T13:37:24;97152.97;;;2.05;77.00
83444;BME280;73374;41.170;-96.156;2024-02-21T13:42:27;97142.16;;;2.02;76.27
83444;BME280;73374;41.170;-96.156;2024-02-21T13:47:30;97160.09;;;2.02;76.72
83444;BME280;73374;41.170;-96.156;2024-02-21T13:52:34;97152.97;;;1.94;76.51
83444;BME280;73374;41.170;-96.156;2024-02-21T13:57:38;97151.16;;;2.19;76.06
83444;BME280;73374;41.170;-96.156;2024-02-21T14:02:41;97133.09;;;2.42;74.97
83444;BME280;73374;41.170;-96.156;2024-02-21T14:07:48;97133.34;;;2.73;74.19
83444;BME280;73374;41.170;-96.156;2024-02-21T14:12:52;97114.81;;;3.24;74.13
83444;BME280;73374;41.170;-96.156;2024-02-21T14:17:54;97108.97;;;4.16;72.10
83444;BME280;73374;41.170;-96.156;2024-02-21T14:22:59;97093.22;;;5.69;68.05
83444;BME280;73374;41.170;-96.156;2024-02-21T14:28:02;97104.09;;;5.92;66.47
83444;BME280;73374;41.170;-96.156;2024-02-21T14:33:06;97108.00;;;5.77;68.46
83444;BME280;73374;41.170;-96.156;2024-02-21T14:38:10;97098.63;;;6.04;67.57
83444;BME280;73374;41.170;-96.156;2024-02-21T14:43:13;97081.00;;;5.81;67.54
83444;BME280;73374;41.170;-96.156;2024-02-21T14:48:17;97083.50;;;6.56;65.26
83444;BME280;73374;41.170;-96.156;2024-02-21T14:53:22;97091.59;;;6.44;67.20
83444;BME280;73374;41.170;-96.156;2024-02-21T14:58:25;97091.50;;;6.90;66.70
83444;BME280;73374;41.170;-96.156;2024-02-21T15:03:28;97085.19;;;7.03;62.51
83444;BME280;73374;41.170;-96.156;2024-02-21T15:08:32;97089.78;;;7.44;64.66
83444;BME280;73374;41.170;-96.156;2024-02-21T15:13:35;97089.56;;;7.73;59.49
83444;BME280;73374;41.170;-96.156;2024-02-21T15:18:38;97087.34;;;8.04;61.24
83444;BME280;73374;41.170;-96.156;2024-02-21T15:23:43;97087.63;;;8.19;60.78
83444;BME280;73374;41.170;-96.156;2024-02-21T15:28:46;97090.59;;;8.58;59.76
83444;BME280;73374;41.170;-96.156;2024-02-21T15:33:49;97104.00;;;8.02;60.20
83444;BME280;73374;41.170;-96.156;2024-02-21T15:38:55;97091.69;;;8.90;58.96
83444;BME280;73374;41.170;-96.156;2024-02-21T15:43:58;97078.97;;;8.62;59.81
83444;BME280;73374;41.170;-96.156;2024-02-21T15:49:01;97070.44;;;8.70;60.22
83444;BME280;73374;41.170;-96.156;2024-02-21T15:54:06;97039.63;;;9.42;56.47
83444;BME280;73374;41.170;-96.156;2024-02-21T15:59:09;97046.63;;;9.57;55.75
83444;BME280;73374;41.170;-96.156;2024-02-21T16:04:12;97031.84;;;9.82;56.07
83444;BME280;73374;41.170;-96.156;2024-02-21T16:09:17;97036.69;;;12.61;51.05
83444;BME280;73374;41.170;-96.156;2024-02-21T16:14:20;97033.41;;;12.53;47.91
83444;BME280;73374;41.170;-96.156;2024-02-21T16:19:23;97028.31;;;13.81;46.44
83444;BME280;73374;41.170;-96.156;2024-02-21T16:24:27;97042.66;;;12.55;46.28
83444;BME280;73374;41.170;-96.156;2024-02-21T16:29:30;97043.25;;;15.85;42.94
83444;BME280;73374;41.170;-96.156;2024-02-21T16:34:34;97041.34;;;14.71;42.35
83444;BME280;73374;41.170;-96.156;2024-02-21T16:39:38;97027.63;;;15.17;41.00
83444;BME280;73374;41.170;-96.156;2024-02-21T16:44:42;97004.91;;;17.83;38.27
83444;BME280;73374;41.170;-96.156;2024-02-21T16:49:45;97002.50;;;17.49;38.37
83444;BME280;73374;41.170;-96.156;2024-02-21T16:54:50;97009.31;;;19.58;37.23
83444;BME280;73374;41.170;-96.156;2024-02-21T16:59:53;97011.53;;;14.59;41.20
83444;BME280;73374;41.170;-96.156;2024-02-21T17:04:56;96999.56;;;18.32;37.13
83444;BME280;73374;41.170;-96.156;2024-02-21T17:10:01;96992.13;;;19.14;36.90
83444;BME280;73374;41.170;-96.156;2024-02-21T17:15:04;96999.88;;;16.80;39.01
83444;BME280;73374;41.170;-96.156;2024-02-21T17:20:08;97003.47;;;16.92;38.75
83444;BME280;73374;41.170;-96.156;2024-02-21T17:25:13;96988.69;;;19.25;36.37
83444;BME280;73374;41.170;-96.156;2024-02-21T17:30:17;96983.28;;;19.50;34.52
83444;BME280;73374;41.170;-96.156;2024-02-21T17:35:20;96983.44;;;17.29;35.98
83444;BME280;73374;41.170;-96.156;2024-02-21T17:40:24;96976.84;;;20.63;32.27
83444;BME280;73374;41.170;-96.156;2024-02-21T17:45:28;96972.28;;;21.16;30.62
83444;BME280;73374;41.170;-96.156;2024-02-21T17:50:31;96949.31;;;24.11;27.96
83444;BME280;73374;41.170;-96.156;2024-02-21T17:55:35;96942.31;;;23.94;30.21
83444;BME280;73374;41.170;-96.156;2024-02-21T18:00:38;96934.97;;;24.06;26.52
83444;BME280;73374;41.170;-96.156;2024-02-21T18:05:42;96927.41;;;25.08;27.23
83444;BME280;73374;41.170;-96.156;2024-02-21T18:10:46;96921.47;;;20.97;29.83
83444;BME280;73374;41.170;-96.156;2024-02-21T18:15:49;96892.59;;;25.71;26.58
83444;BME280;73374;41.170;-96.156;2024-02-21T18:20:52;96877.59;;;23.21;28.00
83444;BME280;73374;41.170;-96.156;2024-02-21T18:25:57;96851.34;;;25.07;27.30
83444;BME280;73374;41.170;-96.156;2024-02-21T18:31:00;96841.28;;;21.20;28.73
83444;BME280;73374;41.170;-96.156;2024-02-21T18:36:04;96815.66;;;23.37;27.97
83444;BME280;73374;41.170;-96.156;2024-02-21T18:41:09;96796.09;;;22.74;27.97
83444;BME280;73374;41.170;-96.156;2024-02-21T18:46:12;96780.28;;;21.38;27.50
83444;BME280;73374;41.170;-96.156;2024-02-21T18:51:15;96761.84;;;19.85;29.70
83444;BME280;73374;41.170;-96.156;2024-02-21T18:56:20;96748.03;;;21.85;30.68
83444;BME280;73374;41.170;-96.156;2024-02-21T19:01:24;96745.97;;;25.52;25.72
83444;BME280;73374;41.170;-96.156;2024-02-21T19:06:27;96746.34;;;20.96;29.90
83444;BME280;73374;41.170;-96.156;2024-02-21T19:11:32;96721.31;;;25.11;26.62
83444;BME280;73374;41.170;-96.156;2024-02-21T19:16:35;96724.94;;;22.02;27.84
83444;BME280;73374;41.170;-96.156;2024-02-21T19:21:38;96710.47;;;24.51;24.87
83444;BME280;73374;41.170;-96.156;2024-02-21T19:26:43;96708.22;;;23.92;25.69
83444;BME280;73374;41.170;-96.156;2024-02-21T19:31:46;96700.78;;;22.15;29.50
83444;BME280;73374;41.170;-96.156;2024-02-21T19:36:49;96687.88;;;25.00;25.65
83444;BME280;73374;41.170;-96.156;2024-02-21T19:41:54;96682.16;;;26.40;22.70
83444;BME280;73374;41.170;-96.156;2024-02-21T19:46:57;96676.94;;;24.04;25.02
83444;BME280;73374;41.170;-96.156;2024-02-21T19:52:00;96674.47;;;23.62;25.41
83444;BME280;73374;41.170;-96.156;2024-02-21T19:57:05;96655.34;;;25.88;24.22
83444;BME280;73374;41.170;-96.156;2024-02-21T20:02:08;96646.34;;;28.28;22.81
83444;BME280;73374;41.170;-96.156;2024-02-21T20:07:11;96648.28;;;28.41;22.14
83444;BME280;73374;41.170;-96.156;2024-02-21T20:12:16;96641.38;;;28.86;22.71
83444;BME280;73374;41.170;-96.156;2024-02-21T20:17:19;96622.25;;;30.42;19.99
83444;BME280;73374;41.170;-96.156;2024-02-21T20:22:22;96612.94;;;30.40;20.83
83444;BME280;73374;41.170;-96.156;2024-02-21T20:27:27;96609.16;;;27.37;21.64
83444;BME280;73374;41.170;-96.156;2024-02-21T20:32:30;96593.53;;;29.76;19.29
83444;BME280;73374;41.170;-96.156;2024-02-21T20:37:33;96585.34;;;26.98;20.08
83444;BME280;73374;41.170;-96.156;2024-02-21T20:42:37;96583.31;;;27.14;22.89
83444;BME280;73374;41.170;-96.156;2024-02-21T20:47:40;96592.34;;;25.73;21.40
83444;BME280;73374;41.170;-96.156;2024-02-21T20:52:44;96568.41;;;26.36;22.75
83444;BME280;73374;41.170;-96.156;2024-02-21T20:57:48;96561.50;;;26.01;23.08
83444;BME280;73374;41.170;-96.156;2024-02-21T21:02:51;96549.50;;;24.40;22.38
83444;BME280;73374;41.170;-96.156;2024-02-21T21:07:54;96542.72;;;24.88;24.10
83444;BME280;73374;41.170;-96.156;2024-02-21T21:12:59;96545.34;;;25.04;25.04
83444;BME280;73374;41.170;-96.156;2024-02-21T21:18:03;96537.75;;;24.67;24.63
83444;BME280;73374;41.170;-96.156;2024-02-21T21:23:06;96527.28;;;24.90;24.16
83444;BME280;73374;41.170;-96.156;2024-02-21T21:28:11;96527.75;;;23.57;25.94
83444;BME280;73374;41.170;-96.156;2024-02-21T21:33:14;96513.97;;;23.60;25.69
83444;BME280;73374;41.170;-96.156;2024-02-21T21:38:17;96497.44;;;23.12;26.47
83444;BME280;73374;41.170;-96.156;2024-02-21T21:43:22;96488.09;;;22.32;28.04
83444;BME280;73374;41.170;-96.156;2024-02-21T21:48:25;96480.47;;;22.40;27.17
83444;BME280;73374;41.170;-96.156;2024-02-21T21:53:28;96467.34;;;22.13;27.83
83444;BME280;73374;41.170;-96.156;2024-02-21T21:58:33;96476.00;;;21.66;27.13
83444;BME280;73374;41.170;-96.156;2024-02-21T22:03:36;96452.09;;;21.88;26.02
83444;BME280;73374;41.170;-96.156;2024-02-21T22:08:39;96456.16;;;21.05;24.79
83444;BME280;73374;41.170;-96.156;2024-02-21T22:13:50;96434.00;;;21.11;26.91
83444;BME280;73374;41.170;-96.156;2024-02-21T22:18:53;96437.28;;;20.96;27.49
83444;BME280;73374;41.170;-96.156;2024-02-21T22:23:56;96424.59;;;20.66;25.95
83444;BME280;73374;41.170;-96.156;2024-02-21T22:29:01;96421.00;;;20.77;26.26
83444;BME280;73374;41.170;-96.156;2024-02-21T22:34:04;96425.28;;;20.57;26.52
83444;BME280;73374;41.170;-96.156;2024-02-21T22:39:07;96429.66;;;20.29;26.93
83444;BME280;73374;41.170;-96.156;2024-02-21T22:44:11;96425.78;;;19.76;26.86
83444;BME280;73374;41.170;-96.156;2024-02-21T22:49:14;96417.44;;;19.63;27.93
83444;BME280;73374;41.170;-96.156;2024-02-21T22:54:17;96420.19;;;19.39;26.91
83444;BME280;73374;41.170;-96.156;2024-02-21T22:59:22;96421.25;;;19.72;27.08
83444;BME280;73374;41.170;-96.156;2024-02-21T23:04:25;96429.03;;;19.00;27.61
83444;BME280;73374;41.170;-96.156;2024-02-21T23:09:29;96438.63;;;18.77;27.90
83444;BME280;73374;41.170;-96.156;2024-02-21T23:14:33;96440.88;;;18.45;28.17
83444;BME280;73374;41.170;-96.156;2024-02-21T23:19:36;96446.97;;;18.34;28.00
83444;BME280;73374;41.170;-96.156;2024-02-21T23:24:40;96438.97;;;18.41;28.70
83444;BME280;73374;41.170;-96.156;2024-02-21T23:29:45;96442.00;;;17.97;28.70
83444;BME280;73374;41.170;-96.156;2024-02-21T23:34:48;96438.00;;;17.83;28.92
83444;BME280;73374;41.170;-96.156;2024-02-21T23:39:51;96445.47;;;17.21;30.03
83444;BME280;73374;41.170;-96.156;2024-02-21T23:44:56;96470.03;;;16.97;30.81
83444;BME280;73374;41.170;-96.156;2024-02-21T23:49:59;96480.13;;;16.81;30.58
83444;BME280;73374;41.170;-96.156;2024-02-21T23:55:02;96478.97;;;16.77;30.46
